Main page
METAR-TAF:

METAR-TAF

Airports :

Skelton Airport

Eureka, Alaska, United States

latitude: 61-56N, longitude: 147-10W, elevation: 3287 ft

Current weather observation

The report was made 1 hour and 0 minutes ago, at 07:56 UTC
Wind 6 mph from the North
Temperature 34°F
Humidity 69%
Pressure 29.52 in. Hg
Visibility: 10 miles
Overcast at a height of 3700 ft

METAR: PAZK 270756Z AUTO 01005KT 10SM OVC037 01/M04 A2952 RMK AO2 SLP036 T00061044 FZRANO

Time: 00:56 (08:56 UTC)


TAF: missing

Weather observations and forecasts of more than 4000 airports (METAR and TAF reports).

The available stations are represented by yellow and red dots on the map.

Hover mouse over dot to see the name of the station.

Then click to see weather observations and forecasts.

To change the map : click on the green buttons with a black cross to zoom in, on the green button with a dash to zoom out, or on the green arrows for adjacent maps.


METAR-TAF: